sensor_id;sensor_type;location;lat;lon;timestamp;temperature;humidity
3846;DHT22;1938;50.812;7.738;2023-04-24T00:02:16;9.60;99.90
3846;DHT22;1938;50.812;7.738;2023-04-24T00:04:42;9.50;1.00
3846;DHT22;1938;50.812;7.738;2023-04-24T00:07:12;9.40;1.00
3846;DHT22;1938;50.812;7.738;2023-04-24T00:09:38;9.50;1.00
3846;DHT22;1938;50.812;7.738;2023-04-24T00:12:04;9.50;1.00
3846;DHT22;1938;50.812;7.738;2023-04-24T00:14:30;9.50;1.00
3846;DHT22;1938;50.812;7.738;2023-04-24T00:16:57;9.40;91.10
3846;DHT22;1938;50.812;7.738;2023-04-24T00:19:23;9.40;99.90
3846;DHT22;1938;50.812;7.738;2023-04-24T00:21:48;9.30;99.90
3846;DHT22;1938;50.812;7.738;2023-04-24T00:24:17;9.30;99.90
3846;DHT22;1938;50.812;7.738;2023-04-24T00:26:43;9.30;99.90
3846;DHT22;1938;50.812;7.738;2023-04-24T00:29:09;9.30;99.90
3846;DHT22;1938;50.812;7.738;2023-04-24T00:31:34;9.20;99.90
3846;DHT22;1938;50.812;7.738;2023-04-24T00:34:00;9.10;99.90
3846;DHT22;1938;50.812;7.738;2023-04-24T00:36:27;9.10;99.90
3846;DHT22;1938;50.812;7.738;2023-04-24T00:38:53;9.10;99.90
3846;DHT22;1938;50.812;7.738;2023-04-24T00:41:19;9.10;99.90
3846;DHT22;1938;50.812;7.738;2023-04-24T00:43:46;9.10;99.90
3846;DHT22;1938;50.812;7.738;2023-04-24T00:46:12;9.20;99.90
3846;DHT22;1938;50.812;7.738;2023-04-24T00:48:39;9.20;99.90
3846;DHT22;1938;50.812;7.738;2023-04-24T00:51:05;9.20;99.90
3846;DHT22;1938;50.812;7.738;2023-04-24T00:53:31;9.20;99.90
3846;DHT22;1938;50.812;7.738;2023-04-24T00:55:57;9.20;99.90
3846;DHT22;1938;50.812;7.738;2023-04-24T00:58:22;9.20;99.90
3846;DHT22;1938;50.812;7.738;2023-04-24T01:00:49;9.10;99.90
3846;DHT22;1938;50.812;7.738;2023-04-24T01:03:15;9.20;99.90
3846;DHT22;1938;50.812;7.738;2023-04-24T01:05:43;9.20;99.90
3846;DHT22;1938;50.812;7.738;2023-04-24T01:08:08;9.20;99.90
3846;DHT22;1938;50.812;7.738;2023-04-24T01:10:34;9.10;99.90
3846;DHT22;1938;50.812;7.738;2023-04-24T01:13:01;9.20;99.90
3846;DHT22;1938;50.812;7.738;2023-04-24T01:15:27;9.10;99.90
3846;DHT22;1938;50.812;7.738;2023-04-24T01:17:52;9.10;99.90
3846;DHT22;1938;50.812;7.738;2023-04-24T01:20:18;8.90;99.90
3846;DHT22;1938;50.812;7.738;2023-04-24T01:22:44;9.00;99.90
3846;DHT22;1938;50.812;7.738;2023-04-24T01:25:10;9.00;99.90
3846;DHT22;1938;50.812;7.738;2023-04-24T01:27:36;8.90;99.90
3846;DHT22;1938;50.812;7.738;2023-04-24T01:30:02;9.00;99.90
3846;DHT22;1938;50.812;7.738;2023-04-24T01:32:28;9.00;99.90
3846;DHT22;1938;50.812;7.738;2023-04-24T01:34:54;9.00;99.90
3846;DHT22;1938;50.812;7.738;2023-04-24T01:37:20;9.00;99.90
3846;DHT22;1938;50.812;7.738;2023-04-24T01:39:46;9.10;99.90
3846;DHT22;1938;50.812;7.738;2023-04-24T01:42:12;9.00;99.90
3846;DHT22;1938;50.812;7.738;2023-04-24T01:44:38;9.00;99.90
3846;DHT22;1938;50.812;7.738;2023-04-24T01:47:04;8.90;99.90
3846;DHT22;1938;50.812;7.738;2023-04-24T01:49:30;8.90;99.90
3846;DHT22;1938;50.812;7.738;2023-04-24T01:51:56;9.00;99.90
3846;DHT22;1938;50.812;7.738;2023-04-24T01:54:23;8.90;99.90
3846;DHT22;1938;50.812;7.738;2023-04-24T01:56:49;8.90;99.90
3846;DHT22;1938;50.812;7.738;2023-04-24T01:59:15;9.00;99.90
3846;DHT22;1938;50.812;7.738;2023-04-24T02:01:42;9.00;99.90
3846;DHT22;1938;50.812;7.738;2023-04-24T02:04:07;9.00;99.90
3846;DHT22;1938;50.812;7.738;2023-04-24T02:06:33;9.00;99.90
3846;DHT22;1938;50.812;7.738;2023-04-24T02:08:59;9.00;99.90
3846;DHT22;1938;50.812;7.738;2023-04-24T02:11:25;9.00;99.90
3846;DHT22;1938;50.812;7.738;2023-04-24T02:13:51;9.00;99.90
3846;DHT22;1938;50.812;7.738;2023-04-24T02:16:17;8.90;99.90
3846;DHT22;1938;50.812;7.738;2023-04-24T02:18:42;8.90;99.90
3846;DHT22;1938;50.812;7.738;2023-04-24T02:21:08;8.90;99.90
3846;DHT22;1938;50.812;7.738;2023-04-24T02:23:33;8.90;99.90
3846;DHT22;1938;50.812;7.738;2023-04-24T02:25:59;8.80;99.90
3846;DHT22;1938;50.812;7.738;2023-04-24T02:28:25;8.80;99.90
3846;DHT22;1938;50.812;7.738;2023-04-24T02:30:50;8.80;99.90
3846;DHT22;1938;50.812;7.738;2023-04-24T02:33:16;8.70;99.90
3846;DHT22;1938;50.812;7.738;2023-04-24T02:35:41;8.60;99.90
3846;DHT22;1938;50.812;7.738;2023-04-24T02:38:07;8.50;99.90
3846;DHT22;1938;50.812;7.738;2023-04-24T02:40:33;8.60;99.90
3846;DHT22;1938;50.812;7.738;2023-04-24T02:42:58;8.50;99.90
3846;DHT22;1938;50.812;7.738;2023-04-24T02:45:24;8.50;99.90
3846;DHT22;1938;50.812;7.738;2023-04-24T02:47:49;8.40;99.90
3846;DHT22;1938;50.812;7.738;2023-04-24T02:50:15;8.40;99.90
3846;DHT22;1938;50.812;7.738;2023-04-24T02:52:41;8.30;99.90
3846;DHT22;1938;50.812;7.738;2023-04-24T02:55:08;8.30;99.90
3846;DHT22;1938;50.812;7.738;2023-04-24T02:57:34;8.30;99.90
3846;DHT22;1938;50.812;7.738;2023-04-24T02:59:59;8.30;99.90
3846;DHT22;1938;50.812;7.738;2023-04-24T03:02:25;8.30;99.90
3846;DHT22;1938;50.812;7.738;2023-04-24T03:04:51;8.30;99.90
3846;DHT22;1938;50.812;7.738;2023-04-24T03:07:16;8.30;99.90
3846;DHT22;1938;50.812;7.738;2023-04-24T03:09:42;8.30;99.90
3846;DHT22;1938;50.812;7.738;2023-04-24T03:12:07;8.20;99.90
3846;DHT22;1938;50.812;7.738;2023-04-24T03:14:33;8.10;99.90
3846;DHT22;1938;50.812;7.738;2023-04-24T03:16:59;8.00;99.90
3846;DHT22;1938;50.812;7.738;2023-04-24T03:19:25;8.00;99.90
3846;DHT22;1938;50.812;7.738;2023-04-24T03:21:50;8.00;99.90
3846;DHT22;1938;50.812;7.738;2023-04-24T03:24:16;7.80;99.90
3846;DHT22;1938;50.812;7.738;2023-04-24T03:26:41;7.70;99.90
3846;DHT22;1938;50.812;7.738;2023-04-24T03:29:07;7.70;99.90
3846;DHT22;1938;50.812;7.738;2023-04-24T03:31:33;7.60;99.90
3846;DHT22;1938;50.812;7.738;2023-04-24T03:33:58;7.50;54.10
3846;DHT22;1938;50.812;7.738;2023-04-24T03:36:24;7.40;52.60
3846;DHT22;1938;50.812;7.738;2023-04-24T03:38:49;7.40;41.10
3846;DHT22;1938;50.812;7.738;2023-04-24T03:41:15;7.40;39.20
3846;DHT22;1938;50.812;7.738;2023-04-24T03:43:40;7.30;1.00
3846;DHT22;1938;50.812;7.738;2023-04-24T03:46:07;7.20;1.00
3846;DHT22;1938;50.812;7.738;2023-04-24T03:48:34;7.30;1.00
3846;DHT22;1938;50.812;7.738;2023-04-24T03:51:00;7.20;1.00
3846;DHT22;1938;50.812;7.738;2023-04-24T03:53:25;7.30;1.00
3846;DHT22;1938;50.812;7.738;2023-04-24T03:55:52;7.30;1.00
3846;DHT22;1938;50.812;7.738;2023-04-24T03:58:18;7.40;1.00
3846;DHT22;1938;50.812;7.738;2023-04-24T04:00:45;7.50;24.10
3846;DHT22;1938;50.812;7.738;2023-04-24T04:03:12;7.40;99.90
3846;DHT22;1938;50.812;7.738;2023-04-24T04:05:39;7.50;1.00
3846;DHT22;1938;50.812;7.738;2023-04-24T04:08:05;7.40;8.00
3846;DHT22;1938;50.812;7.738;2023-04-24T04:10:31;7.40;21.30
3846;DHT22;1938;50.812;7.738;2023-04-24T04:12:57;7.40;1.00
3846;DHT22;1938;50.812;7.738;2023-04-24T04:15:23;7.30;99.90
3846;DHT22;1938;50.812;7.738;2023-04-24T04:17:49;7.20;99.90
3846;DHT22;1938;50.812;7.738;2023-04-24T04:20:14;7.20;1.00
3846;DHT22;1938;50.812;7.738;2023-04-24T04:22:41;7.10;1.00
3846;DHT22;1938;50.812;7.738;2023-04-24T04:25:07;7.00;43.20
3846;DHT22;1938;50.812;7.738;2023-04-24T04:27:33;6.90;99.90
3846;DHT22;1938;50.812;7.738;2023-04-24T04:30:00;6.80;99.90
3846;DHT22;1938;50.812;7.738;2023-04-24T04:32:33;6.70;99.90
3846;DHT22;1938;50.812;7.738;2023-04-24T04:35:00;6.60;37.70
3846;DHT22;1938;50.812;7.738;2023-04-24T04:37:37;6.60;1.00
3846;DHT22;1938;50.812;7.738;2023-04-24T04:40:03;6.50;27.80
3846;DHT22;1938;50.812;7.738;2023-04-24T04:42:32;6.60;99.90
3846;DHT22;1938;50.812;7.738;2023-04-24T04:45:01;6.50;99.90
3846;DHT22;1938;50.812;7.738;2023-04-24T04:47:27;6.60;1.00
3846;DHT22;1938;50.812;7.738;2023-04-24T04:49:54;6.40;99.90
3846;DHT22;1938;50.812;7.738;2023-04-24T04:52:20;6.50;10.40
3846;DHT22;1938;50.812;7.738;2023-04-24T04:54:46;6.60;99.90
3846;DHT22;1938;50.812;7.738;2023-04-24T04:57:12;6.70;1.00
3846;DHT22;1938;50.812;7.738;2023-04-24T04:59:37;6.70;1.00
3846;DHT22;1938;50.812;7.738;2023-04-24T05:02:03;6.70;1.00
3846;DHT22;1938;50.812;7.738;2023-04-24T05:04:29;6.60;84.60
3846;DHT22;1938;50.812;7.738;2023-04-24T05:06:55;6.60;1.00
3846;DHT22;1938;50.812;7.738;2023-04-24T05:09:21;6.60;99.90
3846;DHT22;1938;50.812;7.738;2023-04-24T05:11:47;6.60;99.90
3846;DHT22;1938;50.812;7.738;2023-04-24T05:14:13;6.70;99.90
3846;DHT22;1938;50.812;7.738;2023-04-24T05:16:39;6.90;1.00
3846;DHT22;1938;50.812;7.738;2023-04-24T05:19:05;7.10;99.90
3846;DHT22;1938;50.812;7.738;2023-04-24T05:21:31;7.10;99.90
3846;DHT22;1938;50.812;7.738;2023-04-24T05:23:57;7.50;99.90
3846;DHT22;1938;50.812;7.738;2023-04-24T05:26:22;8.00;1.00
3846;DHT22;1938;50.812;7.738;2023-04-24T05:28:48;7.50;99.90
3846;DHT22;1938;50.812;7.738;2023-04-24T05:31:14;7.40;1.00
3846;DHT22;1938;50.812;7.738;2023-04-24T05:33:40;7.30;99.90
3846;DHT22;1938;50.812;7.738;2023-04-24T05:36:06;7.20;1.00
3846;DHT22;1938;50.812;7.738;2023-04-24T05:38:32;7.00;39.20
3846;DHT22;1938;50.812;7.738;2023-04-24T05:40:57;7.00;1.00
3846;DHT22;1938;50.812;7.738;2023-04-24T05:43:23;7.00;99.90
3846;DHT22;1938;50.812;7.738;2023-04-24T05:45:48;7.00;99.90
3846;DHT22;1938;50.812;7.738;2023-04-24T05:48:14;7.10;99.90
3846;DHT22;1938;50.812;7.738;2023-04-24T05:50:40;7.00;99.90
3846;DHT22;1938;50.812;7.738;2023-04-24T05:53:05;7.10;1.00
3846;DHT22;1938;50.812;7.738;2023-04-24T05:55:32;7.20;99.90
3846;DHT22;1938;50.812;7.738;2023-04-24T05:57:58;7.50;31.00
3846;DHT22;1938;50.812;7.738;2023-04-24T06:00:24;7.60;99.90
3846;DHT22;1938;50.812;7.738;2023-04-24T06:02:50;7.80;99.90
3846;DHT22;1938;50.812;7.738;2023-04-24T06:05:15;8.00;1.00
3846;DHT22;1938;50.812;7.738;2023-04-24T06:07:41;8.10;99.90
3846;DHT22;1938;50.812;7.738;2023-04-24T06:10:08;8.20;62.80
3846;DHT22;1938;50.812;7.738;2023-04-24T06:12:34;8.30;14.50
3846;DHT22;1938;50.812;7.738;2023-04-24T06:14:59;8.30;1.00
3846;DHT22;1938;50.812;7.738;2023-04-24T06:17:25;8.40;1.00
3846;DHT22;1938;50.812;7.738;2023-04-24T06:19:51;8.50;99.90
3846;DHT22;1938;50.812;7.738;2023-04-24T06:22:16;8.60;99.90
3846;DHT22;1938;50.812;7.738;2023-04-24T06:24:42;8.60;99.90
3846;DHT22;1938;50.812;7.738;2023-04-24T06:27:07;8.70;99.90
3846;DHT22;1938;50.812;7.738;2023-04-24T06:29:33;8.80;99.90
3846;DHT22;1938;50.812;7.738;2023-04-24T06:31:59;8.80;99.90
3846;DHT22;1938;50.812;7.738;2023-04-24T06:34:25;8.80;99.90
3846;DHT22;1938;50.812;7.738;2023-04-24T06:36:50;8.80;99.90
3846;DHT22;1938;50.812;7.738;2023-04-24T06:39:16;8.80;99.90
3846;DHT22;1938;50.812;7.738;2023-04-24T06:41:42;8.90;78.00
3846;DHT22;1938;50.812;7.738;2023-04-24T06:44:07;8.90;34.50
3846;DHT22;1938;50.812;7.738;2023-04-24T06:46:33;9.00;99.90
3846;DHT22;1938;50.812;7.738;2023-04-24T06:48:58;9.10;46.80
3846;DHT22;1938;50.812;7.738;2023-04-24T06:51:26;9.30;57.20
3846;DHT22;1938;50.812;7.738;2023-04-24T06:53:53;9.40;6.70
3846;DHT22;1938;50.812;7.738;2023-04-24T06:56:19;9.50;1.00
3846;DHT22;1938;50.812;7.738;2023-04-24T06:58:45;9.50;1.00
3846;DHT22;1938;50.812;7.738;2023-04-24T07:01:11;9.60;10.20
3846;DHT22;1938;50.812;7.738;2023-04-24T07:03:37;9.70;1.00
3846;DHT22;1938;50.812;7.738;2023-04-24T07:06:03;10.10;1.00
3846;DHT22;1938;50.812;7.738;2023-04-24T07:08:29;10.40;99.90
3846;DHT22;1938;50.812;7.738;2023-04-24T07:10:59;9.80;99.90
3846;DHT22;1938;50.812;7.738;2023-04-24T07:13:24;9.30;99.90
3846;DHT22;1938;50.812;7.738;2023-04-24T07:15:50;8.90;1.00
3846;DHT22;1938;50.812;7.738;2023-04-24T07:18:18;8.80;50.40
3846;DHT22;1938;50.812;7.738;2023-04-24T07:20:43;8.80;99.90
3846;DHT22;1938;50.812;7.738;2023-04-24T07:23:10;8.80;1.00
3846;DHT22;1938;50.812;7.738;2023-04-24T07:25:35;8.70;1.00
3846;DHT22;1938;50.812;7.738;2023-04-24T07:28:01;8.70;1.00
3846;DHT22;1938;50.812;7.738;2023-04-24T07:30:27;8.50;1.00
3846;DHT22;1938;50.812;7.738;2023-04-24T07:32:58;8.40;71.10
3846;DHT22;1938;50.812;7.738;2023-04-24T07:35:23;8.30;1.00
3846;DHT22;1938;50.812;7.738;2023-04-24T07:37:51;8.20;99.90
3846;DHT22;1938;50.812;7.738;2023-04-24T07:40:17;8.10;1.00
3846;DHT22;1938;50.812;7.738;2023-04-24T07:42:42;7.90;1.00
3846;DHT22;1938;50.812;7.738;2023-04-24T07:45:09;7.80;99.90
3846;DHT22;1938;50.812;7.738;2023-04-24T07:47:34;7.70;1.00
3846;DHT22;1938;50.812;7.738;2023-04-24T07:50:01;7.70;1.00
3846;DHT22;1938;50.812;7.738;2023-04-24T07:52:27;7.70;1.00
3846;DHT22;1938;50.812;7.738;2023-04-24T07:54:54;7.70;48.60
3846;DHT22;1938;50.812;7.738;2023-04-24T07:57:24;7.60;99.90
3846;DHT22;1938;50.812;7.738;2023-04-24T07:59:50;7.60;99.90
3846;DHT22;1938;50.812;7.738;2023-04-24T08:02:15;7.50;99.90
3846;DHT22;1938;50.812;7.738;2023-04-24T08:04:41;7.50;99.90
3846;DHT22;1938;50.812;7.738;2023-04-24T08:07:06;7.40;99.90
3846;DHT22;1938;50.812;7.738;2023-04-24T08:09:32;7.40;99.90
3846;DHT22;1938;50.812;7.738;2023-04-24T08:11:57;7.40;99.90
3846;DHT22;1938;50.812;7.738;2023-04-24T08:14:23;7.30;99.90
3846;DHT22;1938;50.812;7.738;2023-04-24T08:16:48;7.40;99.90
3846;DHT22;1938;50.812;7.738;2023-04-24T08:19:14;7.40;99.90
3846;DHT22;1938;50.812;7.738;2023-04-24T08:21:39;7.30;99.90
3846;DHT22;1938;50.812;7.738;2023-04-24T08:24:05;7.40;99.90
3846;DHT22;1938;50.812;7.738;2023-04-24T08:26:33;7.40;99.90
3846;DHT22;1938;50.812;7.738;2023-04-24T08:28:58;7.30;99.90
3846;DHT22;1938;50.812;7.738;2023-04-24T08:31:24;7.30;99.90
3846;DHT22;1938;50.812;7.738;2023-04-24T08:33:50;7.30;99.90
3846;DHT22;1938;50.812;7.738;2023-04-24T08:36:16;7.10;99.90
3846;DHT22;1938;50.812;7.738;2023-04-24T08:38:42;7.20;99.90
3846;DHT22;1938;50.812;7.738;2023-04-24T08:41:09;7.10;99.90
3846;DHT22;1938;50.812;7.738;2023-04-24T08:43:35;7.20;99.90
3846;DHT22;1938;50.812;7.738;2023-04-24T08:46:04;7.20;99.90
3846;DHT22;1938;50.812;7.738;2023-04-24T08:48:30;7.10;99.90
3846;DHT22;1938;50.812;7.738;2023-04-24T08:50:57;7.10;99.90
3846;DHT22;1938;50.812;7.738;2023-04-24T08:53:25;7.10;99.90
3846;DHT22;1938;50.812;7.738;2023-04-24T08:55:51;7.10;99.90
3846;DHT22;1938;50.812;7.738;2023-04-24T08:58:19;7.10;99.90
3846;DHT22;1938;50.812;7.738;2023-04-24T09:00:45;6.90;99.90
3846;DHT22;1938;50.812;7.738;2023-04-24T09:03:14;7.10;99.90
3846;DHT22;1938;50.812;7.738;2023-04-24T09:05:42;7.00;99.90
3846;DHT22;1938;50.812;7.738;2023-04-24T09:08:12;6.90;99.90
3846;DHT22;1938;50.812;7.738;2023-04-24T09:10:39;6.90;99.90
3846;DHT22;1938;50.812;7.738;2023-04-24T09:13:05;6.80;99.90
3846;DHT22;1938;50.812;7.738;2023-04-24T09:15:34;6.70;99.90
3846;DHT22;1938;50.812;7.738;2023-04-24T09:18:00;6.60;99.90
3846;DHT22;1938;50.812;7.738;2023-04-24T09:20:26;6.50;99.90
3846;DHT22;1938;50.812;7.738;2023-04-24T09:22:54;6.50;99.90
3846;DHT22;1938;50.812;7.738;2023-04-24T09:25:21;6.60;99.90
3846;DHT22;1938;50.812;7.738;2023-04-24T09:27:47;6.80;99.90
3846;DHT22;1938;50.812;7.738;2023-04-24T09:30:14;6.90;99.90
3846;DHT22;1938;50.812;7.738;2023-04-24T09:32:47;7.10;99.90
3846;DHT22;1938;50.812;7.738;2023-04-24T09:35:14;7.20;99.90
3846;DHT22;1938;50.812;7.738;2023-04-24T09:37:43;7.20;99.90
3846;DHT22;1938;50.812;7.738;2023-04-24T09:40:11;7.10;99.90
3846;DHT22;1938;50.812;7.738;2023-04-24T09:42:37;7.00;99.90
3846;DHT22;1938;50.812;7.738;2023-04-24T09:45:04;7.10;99.90
3846;DHT22;1938;50.812;7.738;2023-04-24T09:47:40;6.90;99.90
3846;DHT22;1938;50.812;7.738;2023-04-24T09:50:16;6.90;99.90
3846;DHT22;1938;50.812;7.738;2023-04-24T09:52:56;6.90;99.90
3846;DHT22;1938;50.812;7.738;2023-04-24T09:55:22;6.90;99.90
3846;DHT22;1938;50.812;7.738;2023-04-24T09:58:00;6.80;99.90
3846;DHT22;1938;50.812;7.738;2023-04-24T10:00:28;6.60;99.90
3846;DHT22;1938;50.812;7.738;2023-04-24T10:02:55;6.60;99.90
3846;DHT22;1938;50.812;7.738;2023-04-24T10:05:39;6.70;99.90
3846;DHT22;1938;50.812;7.738;2023-04-24T10:08:07;6.80;99.90
3846;DHT22;1938;50.812;7.738;2023-04-24T10:10:39;6.90;99.90
3846;DHT22;1938;50.812;7.738;2023-04-24T10:13:09;7.00;99.90
3846;DHT22;1938;50.812;7.738;2023-04-24T10:15:36;7.00;99.90
3846;DHT22;1938;50.812;7.738;2023-04-24T10:18:02;7.10;99.90
3846;DHT22;1938;50.812;7.738;2023-04-24T10:20:29;7.20;99.90
3846;DHT22;1938;50.812;7.738;2023-04-24T10:22:59;7.30;99.90
3846;DHT22;1938;50.812;7.738;2023-04-24T10:25:29;7.40;99.90
3846;DHT22;1938;50.812;7.738;2023-04-24T10:27:57;7.50;99.90
3846;DHT22;1938;50.812;7.738;2023-04-24T10:30:25;7.50;99.90
3846;DHT22;1938;50.812;7.738;2023-04-24T10:32:51;7.60;99.90
3846;DHT22;1938;50.812;7.738;2023-04-24T10:35:17;7.50;99.90
3846;DHT22;1938;50.812;7.738;2023-04-24T10:37:46;7.60;99.90
3846;DHT22;1938;50.812;7.738;2023-04-24T10:40:18;7.50;99.90
3846;DHT22;1938;50.812;7.738;2023-04-24T10:42:47;7.20;99.90
3846;DHT22;1938;50.812;7.738;2023-04-24T10:45:18;7.20;99.90
3846;DHT22;1938;50.812;7.738;2023-04-24T10:48:04;7.10;99.90
3846;DHT22;1938;50.812;7.738;2023-04-24T10:53:18;7.10;99.90
3846;DHT22;1938;50.812;7.738;2023-04-24T10:55:52;7.10;99.90
3846;DHT22;1938;50.812;7.738;2023-04-24T10:58:23;7.10;99.90
3846;DHT22;1938;50.812;7.738;2023-04-24T11:00:59;7.00;99.90
3846;DHT22;1938;50.812;7.738;2023-04-24T11:03:33;7.00;99.90
3846;DHT22;1938;50.812;7.738;2023-04-24T11:06:08;7.00;99.90
3846;DHT22;1938;50.812;7.738;2023-04-24T11:08:44;7.10;99.90
3846;DHT22;1938;50.812;7.738;2023-04-24T11:11:15;7.20;99.90
3846;DHT22;1938;50.812;7.738;2023-04-24T11:22:01;7.20;99.90
3846;DHT22;1938;50.812;7.738;2023-04-24T11:24:37;7.40;99.90
3846;DHT22;1938;50.812;7.738;2023-04-24T11:32:19;8.20;99.90
3846;DHT22;1938;50.812;7.738;2023-04-24T11:34:49;8.40;99.90
3846;DHT22;1938;50.812;7.738;2023-04-24T11:37:16;8.40;99.90
3846;DHT22;1938;50.812;7.738;2023-04-24T11:39:41;8.30;99.90
3846;DHT22;1938;50.812;7.738;2023-04-24T11:42:08;8.30;99.90
3846;DHT22;1938;50.812;7.738;2023-04-24T11:44:35;8.20;99.90
3846;DHT22;1938;50.812;7.738;2023-04-24T11:47:05;8.30;99.90
3846;DHT22;1938;50.812;7.738;2023-04-24T11:49:32;8.20;99.90
3846;DHT22;1938;50.812;7.738;2023-04-24T11:51:59;8.20;99.90
3846;DHT22;1938;50.812;7.738;2023-04-24T11:54:25;8.30;99.90
3846;DHT22;1938;50.812;7.738;2023-04-24T11:56:50;8.60;99.90
3846;DHT22;1938;50.812;7.738;2023-04-24T11:59:16;8.90;99.90
3846;DHT22;1938;50.812;7.738;2023-04-24T12:01:48;8.90;99.90
3846;DHT22;1938;50.812;7.738;2023-04-24T12:04:16;8.90;99.90
3846;DHT22;1938;50.812;7.738;2023-04-24T12:07:02;8.70;99.90
3846;DHT22;1938;50.812;7.738;2023-04-24T12:09:28;8.50;99.90
3846;DHT22;1938;50.812;7.738;2023-04-24T12:11:55;8.20;99.90
3846;DHT22;1938;50.812;7.738;2023-04-24T12:14:22;8.10;99.90
3846;DHT22;1938;50.812;7.738;2023-04-24T12:16:48;8.00;99.90
3846;DHT22;1938;50.812;7.738;2023-04-24T12:19:20;7.90;99.90
3846;DHT22;1938;50.812;7.738;2023-04-24T12:21:59;7.80;99.90
3846;DHT22;1938;50.812;7.738;2023-04-24T12:24:25;7.70;99.90
3846;DHT22;1938;50.812;7.738;2023-04-24T12:26:50;7.60;99.90
3846;DHT22;1938;50.812;7.738;2023-04-24T12:29:22;7.60;99.90
3846;DHT22;1938;50.812;7.738;2023-04-24T12:31:49;7.70;99.90
3846;DHT22;1938;50.812;7.738;2023-04-24T12:34:22;7.80;99.90
3846;DHT22;1938;50.812;7.738;2023-04-24T12:36:48;8.10;99.90
3846;DHT22;1938;50.812;7.738;2023-04-24T12:39:18;8.10;99.90
3846;DHT22;1938;50.812;7.738;2023-04-24T12:41:54;8.10;99.90
3846;DHT22;1938;50.812;7.738;2023-04-24T12:44:29;8.00;99.90
3846;DHT22;1938;50.812;7.738;2023-04-24T12:46:54;8.00;99.90
3846;DHT22;1938;50.812;7.738;2023-04-24T12:49:20;8.00;99.90
3846;DHT22;1938;50.812;7.738;2023-04-24T12:51:45;8.10;99.90
3846;DHT22;1938;50.812;7.738;2023-04-24T12:54:11;8.40;99.90
3846;DHT22;1938;50.812;7.738;2023-04-24T12:56:37;9.10;99.90
3846;DHT22;1938;50.812;7.738;2023-04-24T12:59:04;9.70;99.90
3846;DHT22;1938;50.812;7.738;2023-04-24T13:01:30;10.00;99.90
3846;DHT22;1938;50.812;7.738;2023-04-24T13:03:56;10.20;99.90
3846;DHT22;1938;50.812;7.738;2023-04-24T13:06:21;10.30;99.90
3846;DHT22;1938;50.812;7.738;2023-04-24T13:08:47;10.40;99.90
3846;DHT22;1938;50.812;7.738;2023-04-24T13:11:13;10.40;99.90
3846;DHT22;1938;50.812;7.738;2023-04-24T13:13:39;10.40;99.90
3846;DHT22;1938;50.812;7.738;2023-04-24T13:16:06;10.20;99.90
3846;DHT22;1938;50.812;7.738;2023-04-24T13:18:32;10.20;99.90
3846;DHT22;1938;50.812;7.738;2023-04-24T13:20:57;10.10;95.30
3846;DHT22;1938;50.812;7.738;2023-04-24T13:23:23;9.90;82.00
3846;DHT22;1938;50.812;7.738;2023-04-24T13:25:49;9.60;29.40
3846;DHT22;1938;50.812;7.738;2023-04-24T13:28:14;9.40;85.80
3846;DHT22;1938;50.812;7.738;2023-04-24T13:30:40;9.20;99.90
3846;DHT22;1938;50.812;7.738;2023-04-24T13:33:06;9.00;99.90
3846;DHT22;1938;50.812;7.738;2023-04-24T13:35:31;8.80;99.90
3846;DHT22;1938;50.812;7.738;2023-04-24T13:37:57;8.70;99.90
3846;DHT22;1938;50.812;7.738;2023-04-24T13:40:23;8.60;99.90
3846;DHT22;1938;50.812;7.738;2023-04-24T13:42:49;8.80;99.90
3846;DHT22;1938;50.812;7.738;2023-04-24T13:45:14;9.30;99.90
3846;DHT22;1938;50.812;7.738;2023-04-24T13:47:40;9.90;99.90
3846;DHT22;1938;50.812;7.738;2023-04-24T13:50:07;10.10;99.90
3846;DHT22;1938;50.812;7.738;2023-04-24T13:52:33;10.40;99.90
3846;DHT22;1938;50.812;7.738;2023-04-24T13:54:59;10.50;99.90
3846;DHT22;1938;50.812;7.738;2023-04-24T13:57:24;10.70;99.90
3846;DHT22;1938;50.812;7.738;2023-04-24T13:59:50;10.90;99.90
3846;DHT22;1938;50.812;7.738;2023-04-24T14:02:16;11.20;99.90
3846;DHT22;1938;50.812;7.738;2023-04-24T14:04:41;11.10;99.90
3846;DHT22;1938;50.812;7.738;2023-04-24T14:07:07;11.00;99.90
3846;DHT22;1938;50.812;7.738;2023-04-24T14:09:33;11.00;1.00
3846;DHT22;1938;50.812;7.738;2023-04-24T14:11:59;10.70;99.90
3846;DHT22;1938;50.812;7.738;2023-04-24T14:14:26;10.40;1.00
3846;DHT22;1938;50.812;7.738;2023-04-24T14:16:52;10.10;1.00
3846;DHT22;1938;50.812;7.738;2023-04-24T14:19:18;9.90;1.00
3846;DHT22;1938;50.812;7.738;2023-04-24T14:21:43;9.60;1.00
3846;DHT22;1938;50.812;7.738;2023-04-24T14:24:09;9.30;2.30
3846;DHT22;1938;50.812;7.738;2023-04-24T14:26:34;9.00;99.90
3846;DHT22;1938;50.812;7.738;2023-04-24T14:29:00;8.90;99.90
3846;DHT22;1938;50.812;7.738;2023-04-24T14:31:27;8.80;99.90
3846;DHT22;1938;50.812;7.738;2023-04-24T14:33:52;8.70;99.90
3846;DHT22;1938;50.812;7.738;2023-04-24T14:36:18;8.50;99.90
3846;DHT22;1938;50.812;7.738;2023-04-24T14:38:44;8.50;99.90
3846;DHT22;1938;50.812;7.738;2023-04-24T14:41:09;8.50;99.90
3846;DHT22;1938;50.812;7.738;2023-04-24T14:43:37;8.50;99.90
3846;DHT22;1938;50.812;7.738;2023-04-24T14:46:03;8.60;99.90
3846;DHT22;1938;50.812;7.738;2023-04-24T14:48:28;8.90;99.90
3846;DHT22;1938;50.812;7.738;2023-04-24T14:50:54;9.40;99.90
3846;DHT22;1938;50.812;7.738;2023-04-24T14:53:20;9.60;99.90
3846;DHT22;1938;50.812;7.738;2023-04-24T14:55:46;9.80;99.90
3846;DHT22;1938;50.812;7.738;2023-04-24T14:58:11;9.80;99.90
3846;DHT22;1938;50.812;7.738;2023-04-24T15:00:37;9.90;99.90
3846;DHT22;1938;50.812;7.738;2023-04-24T15:03:03;9.90;99.90
3846;DHT22;1938;50.812;7.738;2023-04-24T15:05:28;9.90;99.90
3846;DHT22;1938;50.812;7.738;2023-04-24T15:07:55;9.90;99.90
3846;DHT22;1938;50.812;7.738;2023-04-24T15:10:21;9.90;99.90
3846;DHT22;1938;50.812;7.738;2023-04-24T15:12:49;10.00;99.90
3846;DHT22;1938;50.812;7.738;2023-04-24T15:15:15;10.00;1.00
3846;DHT22;1938;50.812;7.738;2023-04-24T15:17:40;9.90;99.90
3846;DHT22;1938;50.812;7.738;2023-04-24T15:20:06;9.90;99.90
3846;DHT22;1938;50.812;7.738;2023-04-24T15:22:33;9.90;5.40
3846;DHT22;1938;50.812;7.738;2023-04-24T15:24:58;10.00;1.00
3846;DHT22;1938;50.812;7.738;2023-04-24T15:27:24;10.00;99.90
3846;DHT22;1938;50.812;7.738;2023-04-24T15:29:49;10.00;99.90
3846;DHT22;1938;50.812;7.738;2023-04-24T15:32:15;10.10;2.10
3846;DHT22;1938;50.812;7.738;2023-04-24T15:34:41;10.10;1.00
3846;DHT22;1938;50.812;7.738;2023-04-24T15:37:06;10.10;1.00
3846;DHT22;1938;50.812;7.738;2023-04-24T15:39:32;10.10;99.90
3846;DHT22;1938;50.812;7.738;2023-04-24T15:41:58;10.20;1.00
3846;DHT22;1938;50.812;7.738;2023-04-24T15:44:25;10.40;99.90
3846;DHT22;1938;50.812;7.738;2023-04-24T15:46:51;10.50;24.10
3846;DHT22;1938;50.812;7.738;2023-04-24T15:49:17;10.60;1.00
3846;DHT22;1938;50.812;7.738;2023-04-24T15:51:42;10.70;22.90
3846;DHT22;1938;50.812;7.738;2023-04-24T15:54:08;10.90;99.90
3846;DHT22;1938;50.812;7.738;2023-04-24T15:56:34;10.90;1.10
3846;DHT22;1938;50.812;7.738;2023-04-24T15:59:01;10.80;1.00
3846;DHT22;1938;50.812;7.738;2023-04-24T16:01:28;10.70;1.00
3846;DHT22;1938;50.812;7.738;2023-04-24T16:03:54;10.70;99.90
3846;DHT22;1938;50.812;7.738;2023-04-24T16:06:19;10.60;1.00
3846;DHT22;1938;50.812;7.738;2023-04-24T16:08:45;10.50;1.00
3846;DHT22;1938;50.812;7.738;2023-04-24T16:11:10;10.40;99.90
3846;DHT22;1938;50.812;7.738;2023-04-24T16:13:36;10.50;99.90
3846;DHT22;1938;50.812;7.738;2023-04-24T16:16:02;10.60;99.90
3846;DHT22;1938;50.812;7.738;2023-04-24T16:18:27;10.60;15.80
3846;DHT22;1938;50.812;7.738;2023-04-24T16:20:53;10.60;99.90
3846;DHT22;1938;50.812;7.738;2023-04-24T16:23:18;10.70;10.60
3846;DHT22;1938;50.812;7.738;2023-04-24T16:25:44;10.80;1.00
3846;DHT22;1938;50.812;7.738;2023-04-24T16:28:10;10.90;1.00
3846;DHT22;1938;50.812;7.738;2023-04-24T16:30:36;10.90;1.00
3846;DHT22;1938;50.812;7.738;2023-04-24T16:33:04;10.90;1.00